Station Historical Data
Daily Summary for November 12, 2017 Units:  English    Metric   Both
« Previous Day
Next Day »
Daily Weekly Monthly Yearly Custom
  High: Low: Average:
Temperature: 54.6 °F 44.3 °F 48.3 °F
Dew Point: 48.6 °F 41.3 °F 44.5 °F
Humidity: 89 % 78 % 87 %
Wind Speed: 8.0 mph 0.0 mph 0.9 mph
Wind Gust: 11.0 mph - -
Wind:- - SSE
Pressure: 30.24 in 30.13 in -
Precipitation: 0.00 in    
Historical Graphs
 
 
Tabular Data for November 12, 2017
Time Temperature Dew Point Pressure Wind Wind Speed Wind Gust Humidity Rainfall Rate (Hourly) solar
00:00 46.1 °F 43.0 °F 30.14 in Calm   4.0 mph 89 % 0.00 in 0.00 W/m2
00:05 46.0 °F 43.0 °F 30.14 in Calm   3.0 mph 89 % 0.00 in 0.00 W/m2
00:10 45.9 °F 42.8 °F 30.14 in South 2.0 mph 3.0 mph 89 % 0.00 in 0.00 W/m2
00:15 45.9 °F 42.8 °F 30.13 in Calm   3.0 mph 89 % 0.00 in 0.00 W/m2
00:20 45.8 °F 42.8 °F 30.14 in Calm   4.0 mph 89 % 0.00 in 0.00 W/m2
00:25 45.8 °F 42.8 °F 30.14 in South 4.0 mph 7.0 mph 89 % 0.00 in 0.00 W/m2
00:30 45.8 °F 42.8 °F 30.14 in Calm   8.0 mph 89 % 0.00 in 0.00 W/m2
00:35 45.8 °F 42.8 °F 30.14 in Calm   5.0 mph 89 % 0.00 in 0.00 W/m2
00:40 45.8 °F 42.8 °F 30.14 in Calm   9.0 mph 89 % 0.00 in 0.00 W/m2
00:45 45.8 °F 42.8 °F 30.14 in Calm   7.0 mph 89 % 0.00 in 0.00 W/m2
00:50 45.9 °F 42.8 °F 30.13 in Calm   7.0 mph 89 % 0.00 in 0.00 W/m2
00:55 45.9 °F 42.8 °F 30.13 in Calm   6.0 mph 89 % 0.00 in 0.00 W/m2
01:00 45.9 °F 42.8 °F 30.14 in Calm   8.0 mph 89 % 0.00 in 0.00 W/m2
01:05 46.0 °F 43.0 °F 30.14 in Calm   7.0 mph 89 % 0.00 in 0.00 W/m2
01:10 46.0 °F 43.0 °F 30.14 in Calm   8.0 mph 89 % 0.00 in 0.00 W/m2
01:15 46.0 °F 43.0 °F 30.13 in Calm   10.0 mph 89 % 0.00 in 0.00 W/m2
01:20 46.0 °F 43.0 °F 30.13 in Calm   8.0 mph 89 % 0.00 in 0.00 W/m2
01:25 45.9 °F 42.8 °F 30.13 in SE 2.0 mph 7.0 mph 89 % 0.00 in 0.00 W/m2
01:30 45.9 °F 42.8 °F 30.13 in Calm   8.0 mph 89 % 0.00 in 0.00 W/m2
01:40 45.9 °F 42.8 °F 30.13 in SE 4.0 mph 5.0 mph 89 % 0.00 in 0.00 W/m2
01:45 45.8 °F 42.8 °F 30.13 in ESE 5.0 mph 8.0 mph 89 % 0.00 in 0.00 W/m2
01:50 45.8 °F 42.8 °F 30.13 in Calm   7.0 mph 89 % 0.00 in 0.00 W/m2
01:55 45.8 °F 42.8 °F 30.13 in Calm   8.0 mph 89 % 0.00 in 0.00 W/m2
02:00 45.7 °F 42.7 °F 30.13 in ESE 1.0 mph 8.0 mph 89 % 0.00 in 0.00 W/m2
02:05 45.7 °F 42.7 °F 30.13 in Calm   7.0 mph 89 % 0.00 in 0.00 W/m2
02:10 45.6 °F 42.5 °F 30.13 in Calm   8.0 mph 89 % 0.00 in 0.00 W/m2
02:15 45.6 °F 42.5 °F 30.13 in Calm   5.0 mph 89 % 0.00 in 0.00 W/m2
02:20 45.6 °F 42.5 °F 30.13 in Calm   6.0 mph 89 % 0.00 in 0.00 W/m2
02:25 45.5 °F 42.5 °F 30.13 in Calm   2.0 mph 89 % 0.00 in 0.00 W/m2
02:30 45.5 °F 42.5 °F 30.13 in Calm   6.0 mph 89 % 0.00 in 0.00 W/m2
02:35 45.5 °F 42.5 °F 30.13 in Calm   6.0 mph 89 % 0.00 in 0.00 W/m2
02:40 45.4 °F 42.3 °F 30.13 in Calm   4.0 mph 89 % 0.00 in 0.00 W/m2
02:45 45.4 °F 42.3 °F 30.14 in Calm   6.0 mph 89 % 0.00 in 0.00 W/m2
02:50 45.4 °F 42.3 °F 30.14 in Calm   7.0 mph 89 % 0.00 in 0.00 W/m2
02:55 45.3 °F 42.3 °F 30.13 in Calm   7.0 mph 89 % 0.00 in 0.00 W/m2
03:00 45.2 °F 42.2 °F 30.14 in ESE 2.0 mph 6.0 mph 89 % 0.00 in 0.00 W/m2
03:05 45.2 °F 42.2 °F 30.14 in ESE 6.0 mph 6.0 mph 89 % 0.00 in 0.00 W/m2
03:10 45.1 °F 42.1 °F 30.13 in Calm   6.0 mph 89 % 0.00 in 0.00 W/m2
03:15 45.1 °F 42.1 °F 30.13 in Calm   8.0 mph 89 % 0.00 in 0.00 W/m2
03:20 45.1 °F 42.1 °F 30.13 in Calm   9.0 mph 89 % 0.00 in 0.00 W/m2
03:25 45.0 °F 42.0 °F 30.13 in Calm   8.0 mph 89 % 0.00 in 0.00 W/m2
03:30 45.0 °F 42.0 °F 30.13 in Calm   6.0 mph 89 % 0.00 in 0.00 W/m2
03:35 45.0 °F 42.0 °F 30.13 in ESE 4.0 mph 7.0 mph 89 % 0.00 in 0.00 W/m2
03:40 44.9 °F 41.9 °F 30.13 in Calm   8.0 mph 89 % 0.00 in 0.00 W/m2
03:45 44.9 °F 41.9 °F 30.14 in Calm   9.0 mph 89 % 0.00 in 0.00 W/m2
03:50 44.9 °F 41.9 °F 30.13 in Calm   6.0 mph 89 % 0.00 in 0.00 W/m2
03:55 44.9 °F 41.9 °F 30.13 in Calm   6.0 mph 89 % 0.00 in 0.00 W/m2
04:00 44.9 °F 41.9 °F 30.14 in Calm   7.0 mph 89 % 0.00 in 0.00 W/m2
04:05 44.8 °F 41.8 °F 30.14 in Calm   9.0 mph 89 % 0.00 in 0.00 W/m2
04:10 44.9 °F 41.9 °F 30.14 in Calm   7.0 mph 89 % 0.00 in 0.00 W/m2
04:15 44.8 °F 41.8 °F 30.14 in Calm   7.0 mph 89 % 0.00 in 0.00 W/m2
04:20 44.8 °F 41.8 °F 30.14 in Calm   9.0 mph 89 % 0.00 in 0.00 W/m2
04:25 44.8 °F 41.8 °F 30.14 in ESE 4.0 mph 6.0 mph 89 % 0.00 in 0.00 W/m2
04:30 44.7 °F 41.7 °F 30.14 in Calm   7.0 mph 89 % 0.00 in 0.00 W/m2
04:35 44.7 °F 41.7 °F 30.13 in ESE 5.0 mph 7.0 mph 89 % 0.00 in 0.00 W/m2
04:40 44.7 °F 41.7 °F 30.14 in Calm   9.0 mph 89 % 0.00 in 0.00 W/m2
04:45 44.7 °F 41.7 °F 30.14 in Calm   8.0 mph 89 % 0.00 in 0.00 W/m2
04:50 44.7 °F 41.7 °F 30.14 in Calm   8.0 mph 89 % 0.00 in 0.00 W/m2
04:55 44.7 °F 41.7 °F 30.14 in Calm   6.0 mph 89 % 0.00 in 0.00 W/m2
05:00 44.7 °F 41.7 °F 30.14 in Calm     89 % 0.00 in 0.00 W/m2
05:05 44.8 °F 41.8 °F 30.14 in Calm   1.0 mph 89 % 0.00 in 0.00 W/m2
05:10 44.8 °F 41.8 °F 30.14 in Calm   6.0 mph 89 % 0.00 in 0.00 W/m2
05:15 44.8 °F 41.8 °F 30.14 in Calm   7.0 mph 89 % 0.00 in 0.00 W/m2
05:20 44.8 °F 41.8 °F 30.14 in Calm   5.0 mph 89 % 0.00 in 0.00 W/m2
05:25 44.8 °F 41.8 °F 30.14 in Calm   6.0 mph 89 % 0.00 in 0.00 W/m2
05:30 44.7 °F 41.7 °F 30.14 in Calm   5.0 mph 89 % 0.00 in 0.00 W/m2
05:35 44.7 °F 41.7 °F 30.14 in Calm   6.0 mph 89 % 0.00 in 0.00 W/m2
05:40 44.7 °F 41.7 °F 30.14 in Calm   6.0 mph 89 % 0.00 in 0.00 W/m2
05:45 44.7 °F 41.7 °F 30.14 in Calm   4.0 mph 89 % 0.00 in 0.00 W/m2
05:50 44.7 °F 41.7 °F 30.14 in Calm   4.0 mph 89 % 0.00 in 0.00 W/m2
05:55 44.7 °F 41.7 °F 30.14 in Calm   4.0 mph 89 % 0.00 in 0.00 W/m2
06:00 44.7 °F 41.7 °F 30.14 in Calm   6.0 mph 89 % 0.00 in 0.00 W/m2
06:05 44.6 °F 41.6 °F 30.14 in Calm   5.0 mph 89 % 0.00 in 0.00 W/m2
06:10 44.6 °F 41.6 °F 30.14 in Calm   6.0 mph 89 % 0.00 in 0.00 W/m2
06:15 44.5 °F 41.5 °F 30.14 in Calm     89 % 0.00 in 0.00 W/m2
06:20 44.5 °F 41.5 °F 30.14 in Calm   5.0 mph 89 % 0.00 in 0.00 W/m2
06:25 44.5 °F 41.5 °F 30.14 in Calm   6.0 mph 89 % 0.00 in 0.00 W/m2
06:30 44.5 °F 41.5 °F 30.15 in ESE 5.0 mph 5.0 mph 89 % 0.00 in 0.00 W/m2
06:35 44.5 °F 41.5 °F 30.15 in Calm   5.0 mph 89 % 0.00 in 0.00 W/m2
06:40 44.5 °F 41.5 °F 30.15 in Calm   4.0 mph 89 % 0.00 in 0.00 W/m2
06:41 44.5 °F 41.5 °F 30.15 in Calm     89 % 0.00 in 0.00 W/m2
06:46 44.5 °F 41.5 °F 30.15 in Calm     89 % 0.00 in 5.00 W/m2
06:51 44.4 °F 41.4 °F 30.15 in Calm   1.0 mph 89 % 0.00 in 7.00 W/m2
06:56 44.4 °F 41.4 °F 30.15 in Calm   8.0 mph 89 % 0.00 in 11.00 W/m2
07:01 44.4 °F 41.4 °F 30.15 in ESE 1.0 mph 4.0 mph 89 % 0.00 in 16.00 W/m2
07:06 44.4 °F 41.4 °F 30.15 in Calm   5.0 mph 89 % 0.00 in 26.00 W/m2
07:11 44.4 °F 41.4 °F 30.15 in Calm   1.0 mph 89 % 0.00 in 35.00 W/m2
07:16 44.3 °F 41.3 °F 30.15 in ESE 1.0 mph 6.0 mph 89 % 0.00 in 47.00 W/m2
07:21 44.4 °F 41.4 °F 30.15 in Calm   6.0 mph 89 % 0.00 in 105.00 W/m2
07:26 44.4 °F 41.4 °F 30.15 in Calm     89 % 0.00 in 105.00 W/m2
07:31 44.4 °F 41.4 °F 30.16 in ESE 1.0 mph 6.0 mph 89 % 0.00 in 91.00 W/m2
07:36 44.5 °F 41.5 °F 30.16 in ESE 7.0 mph 7.0 mph 89 % 0.00 in 111.00 W/m2
07:41 44.6 °F 41.6 °F 30.16 in ESE 1.0 mph 4.0 mph 89 % 0.00 in 188.00 W/m2
07:46 44.7 °F 41.7 °F 30.16 in Calm   5.0 mph 89 % 0.00 in 102.00 W/m2
07:51 44.8 °F 41.8 °F 30.16 in ESE 2.0 mph 8.0 mph 89 % 0.00 in 139.00 W/m2
07:56 44.9 °F 41.9 °F 30.16 in Calm   6.0 mph 89 % 0.00 in 214.00 W/m2
08:01 45.0 °F 42.0 °F 30.16 in Calm   7.0 mph 89 % 0.00 in 179.00 W/m2
08:06 45.1 °F 42.1 °F 30.16 in Calm   6.0 mph 89 % 0.00 in 109.00 W/m2
08:11 45.2 °F 42.2 °F 30.16 in ESE 6.0 mph 6.0 mph 89 % 0.00 in 276.00 W/m2
08:16 45.3 °F 42.3 °F 30.16 in ESE 2.0 mph 4.0 mph 89 % 0.00 in 281.00 W/m2
08:21 45.5 °F 42.5 °F 30.16 in ESE 5.0 mph 6.0 mph 89 % 0.00 in 278.00 W/m2
08:27 45.6 °F 42.5 °F 30.16 in Calm   7.0 mph 89 % 0.00 in 295.00 W/m2
08:32 45.8 °F 42.8 °F 30.16 in Calm   6.0 mph 89 % 0.00 in 299.00 W/m2
08:37 45.9 °F 42.8 °F 30.17 in Calm   5.0 mph 89 % 0.00 in 320.00 W/m2
08:42 46.1 °F 43.0 °F 30.17 in Calm     89 % 0.00 in 329.00 W/m2
08:47 46.3 °F 43.2 °F 30.17 in Calm   4.0 mph 89 % 0.00 in 371.00 W/m2
08:52 46.5 °F 43.4 °F 30.17 in Calm   9.0 mph 89 % 0.00 in 255.00 W/m2
08:57 46.7 °F 43.6 °F 30.17 in ESE 7.0 mph 8.0 mph 89 % 0.00 in 197.00 W/m2
09:02 46.8 °F 43.7 °F 30.17 in Calm     89 % 0.00 in 299.00 W/m2
09:07 46.8 °F 43.7 °F 30.16 in ESE 5.0 mph 7.0 mph 89 % 0.00 in 513.00 W/m2
09:12 47.0 °F 43.9 °F 30.16 in ESE 4.0 mph 8.0 mph 89 % 0.00 in 489.00 W/m2
09:17 47.2 °F 44.1 °F 30.17 in SE 2.0 mph 8.0 mph 89 % 0.00 in 257.00 W/m2
09:22 47.7 °F 44.6 °F 30.16 in Calm     89 % 0.00 in 599.00 W/m2
09:27 48.2 °F 44.8 °F 30.17 in Calm   1.0 mph 88 % 0.00 in 446.00 W/m2
09:32 48.6 °F 45.5 °F 30.17 in Calm   4.0 mph 89 % 0.00 in 287.00 W/m2
09:37 48.8 °F 45.4 °F 30.17 in SE 6.0 mph 8.0 mph 88 % 0.00 in 443.00 W/m2
09:42 49.1 °F 45.7 °F 30.17 in SSE 4.0 mph 8.0 mph 88 % 0.00 in 585.00 W/m2
09:47 49.3 °F 45.3 °F 30.17 in SSE 6.0 mph 7.0 mph 86 % 0.00 in 387.00 W/m2
09:52 49.6 °F 45.6 °F 30.17 in Calm   6.0 mph 86 % 0.00 in 406.00 W/m2
09:57 49.9 °F 45.9 °F 30.17 in SSE 6.0 mph 9.0 mph 86 % 0.00 in 633.00 W/m2
10:02 50.2 °F 45.9 °F 30.17 in Calm   7.0 mph 85 % 0.00 in 656.00 W/m2
10:07 50.7 °F 46.7 °F 30.17 in Calm     86 % 0.00 in 594.00 W/m2
10:12 51.1 °F 47.1 °F 30.17 in SE 6.0 mph 11.0 mph 86 % 0.00 in 469.00 W/m2
10:17 51.5 °F 46.8 °F 30.17 in Calm   1.0 mph 84 % 0.00 in 420.00 W/m2
10:22 51.8 °F 47.1 °F 30.17 in SE 7.0 mph 10.0 mph 84 % 0.00 in 445.00 W/m2
10:27 52.0 °F 47.0 °F 30.17 in Calm   10.0 mph 83 % 0.00 in 327.00 W/m2
10:32 52.1 °F 46.8 °F 30.17 in Calm     82 % 0.00 in 322.00 W/m2
10:37 52.2 °F 46.9 °F 30.17 in Calm     82 % 0.00 in 332.00 W/m2
10:42 52.3 °F 47.0 °F 30.17 in Calm   6.0 mph 82 % 0.00 in 397.00 W/m2
10:47 52.4 °F 47.1 °F 30.17 in Calm   8.0 mph 82 % 0.00 in 462.00 W/m2
10:52 52.5 °F 47.5 °F 30.17 in SSE 4.0 mph 10.0 mph 83 % 0.00 in 466.00 W/m2
10:57 52.6 °F 46.9 °F 30.17 in Calm   1.0 mph 81 % 0.00 in 482.00 W/m2
11:02 52.7 °F 47.4 °F 30.17 in Calm     82 % 0.00 in 380.00 W/m2
11:07 52.8 °F 47.1 °F 30.16 in South 6.0 mph 9.0 mph 81 % 0.00 in 385.00 W/m2
11:12 52.9 °F 47.2 °F 30.16 in South 4.0 mph 8.0 mph 81 % 0.00 in 661.00 W/m2
11:18 53.0 °F 47.7 °F 30.16 in Calm   6.0 mph 82 % 0.00 in 446.00 W/m2
11:20 53.0 °F 47.3 °F 30.16 in Calm   8.0 mph 81 % 0.00 in 728.00 W/m2
11:25 53.3 °F 47.3 °F 30.16 in Calm   10.0 mph 80 % 0.00 in 325.00 W/m2
11:30 53.4 °F 47.7 °F 30.16 in Calm   9.0 mph 81 % 0.00 in 288.00 W/m2
11:35 53.5 °F 47.5 °F 30.16 in South 4.0 mph 6.0 mph 80 % 0.00 in 343.00 W/m2
11:40 53.6 °F 48.2 °F 30.15 in Calm   8.0 mph 82 % 0.00 in 332.00 W/m2
11:45 53.6 °F 47.6 °F 30.15 in South 4.0 mph 4.0 mph 80 % 0.00 in 338.00 W/m2
11:50 53.6 °F 47.6 °F 30.15 in Calm   4.0 mph 80 % 0.00 in 380.00 W/m2
11:55 53.7 °F 48.3 °F 30.15 in Calm   8.0 mph 82 % 0.00 in 788.00 W/m2
12:00 53.7 °F 48.0 °F 30.14 in Calm   6.0 mph 81 % 0.00 in 707.00 W/m2
12:05 53.9 °F 48.2 °F 30.14 in SSW 2.0 mph 10.0 mph 81 % 0.00 in 513.00 W/m2
12:10 54.0 °F 47.6 °F 30.14 in SSW 2.0 mph 7.0 mph 79 % 0.00 in 547.00 W/m2
12:15 54.1 °F 48.1 °F 30.13 in SSW 3.0 mph 8.0 mph 80 % 0.00 in 448.00 W/m2
12:20 54.2 °F 48.2 °F 30.13 in SSW 2.0 mph 8.0 mph 80 % 0.00 in 520.00 W/m2
12:25 54.3 °F 48.6 °F 30.13 in Calm   9.0 mph 81 % 0.00 in 490.00 W/m2
12:30 54.4 °F 47.7 °F 30.13 in Calm   10.0 mph 78 % 0.00 in 504.00 W/m2
12:35 54.5 °F 48.5 °F 30.13 in SW 8.0 mph 10.0 mph 80 % 0.00 in 541.00 W/m2
12:40 54.5 °F 48.1 °F 30.13 in Calm   9.0 mph 79 % 0.00 in 323.00 W/m2
12:45 54.6 °F 48.2 °F 30.13 in Calm   7.0 mph 79 % 0.00 in 459.00 W/m2
12:50 54.6 °F 48.2 °F 30.13 in Calm   8.0 mph 79 % 0.00 in 396.00 W/m2
12:55 54.6 °F 48.2 °F 30.13 in Calm   5.0 mph 79 % 0.00 in 490.00 W/m2
13:00 54.5 °F 48.1 °F 30.13 in SW 5.0 mph 8.0 mph 79 % 0.00 in 246.00 W/m2
13:05 54.4 °F 47.7 °F 30.13 in SW 4.0 mph 7.0 mph 78 % 0.00 in 213.00 W/m2
13:10 54.4 °F 48.4 °F 30.13 in Calm   9.0 mph 80 % 0.00 in 230.00 W/m2
13:15 54.2 °F 48.2 °F 30.13 in Calm     80 % 0.00 in 178.00 W/m2
13:20 54.0 °F 48.0 °F 30.13 in Calm   6.0 mph 80 % 0.00 in 276.00 W/m2
13:24 53.8 °F 47.8 °F 30.13 in WSW 3.0 mph 8.0 mph 80 % 0.00 in 257.00 W/m2
13:25 53.7 °F 47.7 °F 30.13 in Calm   8.0 mph 80 % 0.00 in 234.00 W/m2
13:30 53.5 °F 47.5 °F 30.14 in Calm   5.0 mph 80 % 0.00 in 246.00 W/m2
13:35 53.4 °F 47.7 °F 30.14 in Calm   5.0 mph 81 % 0.00 in 244.00 W/m2
13:40 53.3 °F 47.6 °F 30.14 in Calm     81 % 0.00 in 241.00 W/m2
13:45 53.3 °F 47.6 °F 30.14 in Calm     81 % 0.00 in 248.00 W/m2
13:50 53.2 °F 47.9 °F 30.13 in Calm   1.0 mph 82 % 0.00 in 221.00 W/m2
13:55 53.2 °F 47.9 °F 30.14 in Calm     82 % 0.00 in 207.00 W/m2
14:00 53.1 °F 47.8 °F 30.14 in Calm     82 % 0.00 in 185.00 W/m2
14:05 53.1 °F 47.8 °F 30.14 in Calm     82 % 0.00 in 220.00 W/m2
14:10 53.2 °F 48.2 °F 30.14 in Calm     83 % 0.00 in 229.00 W/m2
14:15 53.1 °F 47.8 °F 30.14 in Calm   3.0 mph 82 % 0.00 in 257.00 W/m2
14:20 53.1 °F 47.8 °F 30.14 in Calm     82 % 0.00 in 244.00 W/m2
14:25 53.0 °F 47.7 °F 30.14 in Calm     82 % 0.00 in 223.00 W/m2
14:30 53.0 °F 47.7 °F 30.14 in WSW 3.0 mph 4.0 mph 82 % 0.00 in 227.00 W/m2
14:35 53.0 °F 47.7 °F 30.14 in Calm   5.0 mph 82 % 0.00 in 512.00 W/m2
14:40 53.1 °F 47.8 °F 30.14 in Calm     82 % 0.00 in 179.00 W/m2
14:45 53.1 °F 47.8 °F 30.14 in SW 1.0 mph 6.0 mph 82 % 0.00 in 441.00 W/m2
14:50 53.1 °F 47.8 °F 30.14 in Calm   2.0 mph 82 % 0.00 in 276.00 W/m2
14:55 53.1 °F 47.8 °F 30.14 in Calm     82 % 0.00 in 425.00 W/m2
15:00 53.1 °F 47.8 °F 30.14 in Calm     82 % 0.00 in 359.00 W/m2
15:05 53.2 °F 47.5 °F 30.14 in Calm     81 % 0.00 in 239.00 W/m2
15:10 53.2 °F 47.5 °F 30.14 in Calm   9.0 mph 81 % 0.00 in 318.00 W/m2
15:15 53.3 °F 47.6 °F 30.14 in Calm   6.0 mph 81 % 0.00 in 285.00 W/m2
15:20 53.3 °F 48.0 °F 30.14 in Calm   4.0 mph 82 % 0.00 in 179.00 W/m2
15:25 53.4 °F 48.4 °F 30.14 in Calm     83 % 0.00 in 243.00 W/m2
15:30 53.4 °F 48.4 °F 30.14 in Calm     83 % 0.00 in 260.00 W/m2
15:35 53.2 °F 48.2 °F 30.14 in Calm     83 % 0.00 in 123.00 W/m2
15:40 53.2 °F 48.5 °F 30.14 in Calm     84 % 0.00 in 104.00 W/m2
15:45 53.1 °F 47.8 °F 30.14 in Calm   5.0 mph 82 % 0.00 in 51.00 W/m2
15:50 53.1 °F 48.1 °F 30.14 in Calm     83 % 0.00 in 142.00 W/m2
15:55 53.1 °F 48.1 °F 30.14 in Calm     83 % 0.00 in 163.00 W/m2
16:00 53.1 °F 48.1 °F 30.14 in Calm     83 % 0.00 in 146.00 W/m2
16:05 53.0 °F 48.0 °F 30.14 in Calm     83 % 0.00 in 84.00 W/m2
16:10 53.1 °F 48.1 °F 30.14 in Calm     83 % 0.00 in 67.00 W/m2
16:15 53.0 °F 48.3 °F 30.14 in South 2.0 mph 2.0 mph 84 % 0.00 in 28.00 W/m2
16:20 52.9 °F 48.2 °F 30.14 in South 3.0 mph 6.0 mph 84 % 0.00 in 19.00 W/m2
16:25 52.8 °F 48.1 °F 30.15 in South 3.0 mph 5.0 mph 84 % 0.00 in 16.00 W/m2
16:30 52.6 °F 47.9 °F 30.15 in South 6.0 mph 6.0 mph 84 % 0.00 in 14.00 W/m2
16:35 52.4 °F 47.7 °F 30.15 in Calm   4.0 mph 84 % 0.00 in 12.00 W/m2
16:40 52.3 °F 47.6 °F 30.15 in Calm     84 % 0.00 in 12.00 W/m2
16:45 52.0 °F 47.3 °F 30.15 in Calm     84 % 0.00 in 11.00 W/m2
16:50 51.8 °F 47.1 °F 30.15 in Calm     84 % 0.00 in 7.00 W/m2
16:55 51.7 °F 47.0 °F 30.15 in Calm     84 % 0.00 in 0.00 W/m2
17:00 51.5 °F 47.2 °F 30.15 in Calm     85 % 0.00 in 0.00 W/m2
17:05 51.4 °F 47.0 °F 30.15 in Calm     85 % 0.00 in 0.00 W/m2
17:10 51.3 °F 47.0 °F 30.15 in Calm     85 % 0.00 in 0.00 W/m2
17:15 51.1 °F 46.8 °F 30.15 in Calm     85 % 0.00 in 0.00 W/m2
17:20 50.9 °F 46.9 °F 30.16 in Calm     86 % 0.00 in 0.00 W/m2
17:25 50.8 °F 46.8 °F 30.16 in Calm     86 % 0.00 in 0.00 W/m2
17:30 50.8 °F 46.8 °F 30.16 in Calm     86 % 0.00 in 0.00 W/m2
17:35 50.6 °F 46.9 °F 30.16 in Calm     87 % 0.00 in 0.00 W/m2
17:40 50.5 °F 46.8 °F 30.16 in Calm     87 % 0.00 in 0.00 W/m2
17:45 50.4 °F 46.7 °F 30.16 in Calm     87 % 0.00 in 0.00 W/m2
17:50 50.3 °F 46.6 °F 30.16 in Calm     87 % 0.00 in 0.00 W/m2
17:55 50.2 °F 46.2 °F 30.16 in Calm     86 % 0.00 in 0.00 W/m2
18:00 50.1 °F 46.1 °F 30.17 in Calm     86 % 0.00 in 0.00 W/m2
18:05 50.0 °F 46.3 °F 30.17 in Calm     87 % 0.00 in 0.00 W/m2
18:10 49.8 °F 46.1 °F 30.17 in Calm     87 % 0.00 in 0.00 W/m2
18:15 49.7 °F 46.0 °F 30.17 in Calm     87 % 0.00 in 0.00 W/m2
18:20 49.6 °F 45.9 °F 30.17 in Calm     87 % 0.00 in 0.00 W/m2
18:25 49.6 °F 45.9 °F 30.17 in Calm     87 % 0.00 in 0.00 W/m2
18:30 49.5 °F 45.8 °F 30.17 in Calm     87 % 0.00 in 0.00 W/m2
18:35 49.4 °F 45.7 °F 30.17 in Calm     87 % 0.00 in 0.00 W/m2
18:40 49.4 °F 45.7 °F 30.17 in Calm     87 % 0.00 in 0.00 W/m2
18:45 49.4 °F 46.0 °F 30.17 in Calm     88 % 0.00 in 0.00 W/m2
18:50 49.3 °F 45.9 °F 30.17 in Calm     88 % 0.00 in 0.00 W/m2
18:55 49.2 °F 45.8 °F 30.17 in Calm     88 % 0.00 in 0.00 W/m2
19:00 49.1 °F 45.4 °F 30.17 in Calm     87 % 0.00 in 0.00 W/m2
19:05 49.0 °F 45.3 °F 30.17 in Calm     87 % 0.00 in 0.00 W/m2
19:15 48.7 °F 45.0 °F 30.17 in Calm   3.0 mph 87 % 0.00 in 0.00 W/m2
19:20 48.5 °F 44.8 °F 30.17 in Calm     87 % 0.00 in 0.00 W/m2
19:22 48.4 °F 44.7 °F 30.17 in Calm     87 % 0.00 in 0.00 W/m2
19:24 48.4 °F 44.7 °F 30.17 in Calm     87 % 0.00 in 0.00 W/m2
19:29 48.2 °F 44.5 °F 30.17 in Calm     87 % 0.00 in 0.00 W/m2
19:34 48.0 °F 44.3 °F 30.17 in Calm     87 % 0.00 in 0.00 W/m2
19:39 47.8 °F 44.1 °F 30.18 in Calm     87 % 0.00 in 0.00 W/m2
19:44 47.6 °F 43.9 °F 30.18 in Calm     87 % 0.00 in 0.00 W/m2
19:49 47.4 °F 44.0 °F 30.18 in South 3.0 mph 3.0 mph 88 % 0.00 in 0.00 W/m2
19:54 47.2 °F 43.8 °F 30.18 in Calm     88 % 0.00 in 0.00 W/m2
19:59 47.1 °F 43.7 °F 30.18 in South 4.0 mph 5.0 mph 88 % 0.00 in 0.00 W/m2
20:04 46.9 °F 43.5 °F 30.19 in South 3.0 mph 5.0 mph 88 % 0.00 in 0.00 W/m2
20:09 46.8 °F 43.4 °F 30.19 in South 4.0 mph 4.0 mph 88 % 0.00 in 0.00 W/m2
20:14 46.7 °F 43.3 °F 30.18 in South 4.0 mph 6.0 mph 88 % 0.00 in 0.00 W/m2
20:19 46.6 °F 43.2 °F 30.18 in Calm   5.0 mph 88 % 0.00 in 0.00 W/m2
20:24 46.5 °F 43.1 °F 30.19 in Calm     88 % 0.00 in 0.00 W/m2
20:29 46.5 °F 43.4 °F 30.19 in South 6.0 mph 7.0 mph 89 % 0.00 in 0.00 W/m2
20:34 46.4 °F 43.3 °F 30.19 in South 4.0 mph 5.0 mph 89 % 0.00 in 0.00 W/m2
20:39 46.4 °F 43.3 °F 30.19 in Calm   7.0 mph 89 % 0.00 in 0.00 W/m2
20:44 46.3 °F 43.2 °F 30.19 in SSE 5.0 mph 6.0 mph 89 % 0.00 in 0.00 W/m2
20:49 46.3 °F 43.2 °F 30.19 in SSE 2.0 mph 6.0 mph 89 % 0.00 in 0.00 W/m2
20:54 46.3 °F 43.2 °F 30.20 in SSE 2.0 mph 6.0 mph 89 % 0.00 in 0.00 W/m2
20:59 46.2 °F 43.1 °F 30.20 in SSE 4.0 mph 4.0 mph 89 % 0.00 in 0.00 W/m2
21:04 46.1 °F 43.0 °F 30.20 in Calm   5.0 mph 89 % 0.00 in 0.00 W/m2
21:09 46.1 °F 43.0 °F 30.20 in Calm   6.0 mph 89 % 0.00 in 0.00 W/m2
21:14 46.1 °F 43.0 °F 30.20 in Calm   6.0 mph 89 % 0.00 in 0.00 W/m2
21:19 46.1 °F 43.0 °F 30.21 in Calm     89 % 0.00 in 0.00 W/m2
21:24 46.0 °F 43.0 °F 30.21 in Calm   6.0 mph 89 % 0.00 in 0.00 W/m2
21:26 46.0 °F 43.0 °F 30.21 in SSE 1.0 mph 5.0 mph 89 % 0.00 in 0.00 W/m2
21:31 46.0 °F 43.0 °F 30.21 in Calm     89 % 0.00 in 0.00 W/m2
21:36 46.0 °F 43.0 °F 30.21 in Calm     89 % 0.00 in 0.00 W/m2
21:42 46.0 °F 43.0 °F 30.21 in SSE 4.0 mph 5.0 mph 89 % 0.00 in 0.00 W/m2
21:47 46.0 °F 43.0 °F 30.21 in Calm     89 % 0.00 in 0.00 W/m2
21:52 46.0 °F 43.0 °F 30.22 in SSE 5.0 mph 7.0 mph 89 % 0.00 in 0.00 W/m2
21:57 46.0 °F 43.0 °F 30.22 in Calm     89 % 0.00 in 0.00 W/m2
22:02 46.1 °F 42.8 °F 30.22 in Calm     88 % 0.00 in 0.00 W/m2
22:07 46.1 °F 42.8 °F 30.22 in Calm   1.0 mph 88 % 0.00 in 0.00 W/m2
22:12 46.1 °F 42.8 °F 30.22 in Calm   5.0 mph 88 % 0.00 in 0.00 W/m2
22:17 46.1 °F 42.8 °F 30.22 in Calm   1.0 mph 88 % 0.00 in 0.00 W/m2
22:22 46.1 °F 42.8 °F 30.22 in Calm   5.0 mph 88 % 0.00 in 0.00 W/m2
22:27 46.1 °F 42.8 °F 30.22 in SSE 2.0 mph 5.0 mph 88 % 0.00 in 0.00 W/m2
22:32 46.1 °F 42.8 °F 30.22 in Calm   4.0 mph 88 % 0.00 in 0.00 W/m2
22:37 46.0 °F 42.7 °F 30.22 in SSE 4.0 mph 4.0 mph 88 % 0.00 in 0.00 W/m2
22:42 46.1 °F 42.8 °F 30.23 in SSE 1.0 mph 4.0 mph 88 % 0.00 in 0.00 W/m2
22:47 46.0 °F 42.7 °F 30.23 in Calm   2.0 mph 88 % 0.00 in 0.00 W/m2
22:52 46.0 °F 42.7 °F 30.23 in Calm   4.0 mph 88 % 0.00 in 0.00 W/m2
22:57 46.0 °F 42.7 °F 30.23 in Calm   5.0 mph 88 % 0.00 in 0.00 W/m2
23:02 46.0 °F 42.7 °F 30.23 in SSE 1.0 mph 6.0 mph 88 % 0.00 in 0.00 W/m2
23:07 46.0 °F 42.7 °F 30.23 in Calm   5.0 mph 88 % 0.00 in 0.00 W/m2
23:12 46.0 °F 42.7 °F 30.23 in Calm   6.0 mph 88 % 0.00 in 0.00 W/m2
23:17 46.0 °F 42.7 °F 30.23 in Calm   4.0 mph 88 % 0.00 in 0.00 W/m2
23:22 46.0 °F 42.7 °F 30.23 in Calm   8.0 mph 88 % 0.00 in 0.00 W/m2
23:27 46.0 °F 42.7 °F 30.23 in Calm   6.0 mph 88 % 0.00 in 0.00 W/m2
23:32 46.0 °F 42.7 °F 30.23 in SE 4.0 mph 6.0 mph 88 % 0.00 in 0.00 W/m2
23:37 45.9 °F 42.5 °F 30.23 in Calm   7.0 mph 88 % 0.00 in 0.00 W/m2
23:42 45.9 °F 42.5 °F 30.23 in SE 1.0 mph 11.0 mph 88 % 0.00 in 0.00 W/m2
23:47 45.8 °F 42.5 °F 30.23 in Calm   9.0 mph 88 % 0.00 in 0.00 W/m2
23:52 45.8 °F 42.5 °F 30.23 in ESE 4.0 mph 7.0 mph 88 % 0.00 in 0.00 W/m2
23:57 45.9 °F 42.8 °F 30.24 in ESE 5.0 mph 9.0 mph 89 % 0.00 in 0.00 W/m2
Juneau County Weather
Compliments of Weather Underground - 4.5 mb
 WU-history PHP script courtesy of   Juneau County Weather.
powered by Cumulus v1.9.3 (1059)
Ambient Weather VWS v14.00
Top Contact Website Map Copyright © 2007 - 2018 Foresthillweather.com Never base important decisions on this or any weather information obtained from the Internet